Time,TemperatureF,DewpointF,PressureIn,WindDirection,WindDirectionDegrees,WindSpeedMPH,WindSpeedGustMPH,Humidity,HourlyPrecipIn,Conditions,Clouds,dailyrainin,SoftwareType,DateUTC
2013-09-09 00:13:00,69.9,68.0,30.02,NNW,348,0.0,-999.0,94,-99.99,,,0.00,weatherlink.com 1.10,2013-09-09 04:13:00,
2013-09-09 00:35:00,69.7,68.0,30.02,NNW,348,0.0,-999.0,94,-99.99,,,0.00,weatherlink.com 1.10,2013-09-09 04:35:00,
2013-09-09 00:43:00,69.2,68.0,30.02,NNW,348,0.0,-999.0,94,-99.99,,,0.00,weatherlink.com 1.10,2013-09-09 04:43:00,
2013-09-09 00:58:00,68.9,67.0,30.03,NNW,348,0.0,-999.0,94,-99.99,,,0.00,weatherlink.com 1.10,2013-09-09 04:58:00,
2013-09-09 01:13:00,68.8,67.0,30.03,NNW,348,0.0,-999.0,94,-99.99,,,0.00,weatherlink.com 1.10,2013-09-09 05:13:00,
2013-09-09 01:36:00,68.9,67.0,30.03,NNW,348,0.0,-999.0,94,-99.99,,,0.00,weatherlink.com 1.10,2013-09-09 05:36:00,
2013-09-09 01:44:00,68.6,67.0,30.03,NNW,348,0.0,-999.0,94,-99.99,,,0.00,weatherlink.com 1.10,2013-09-09 05:44:00,
2013-09-09 01:59:00,68.3,67.0,30.03,NNW,348,0.0,-999.0,94,-99.99,,,0.00,weatherlink.com 1.10,2013-09-09 05:59:00,
2013-09-09 02:14:00,68.3,67.0,30.03,NNW,348,0.0,-999.0,95,-99.99,,,0.00,weatherlink.com 1.10,2013-09-09 06:14:00,
2013-09-09 02:36:00,68.3,67.0,30.03,NNW,348,0.0,-999.0,95,-99.99,,,0.00,weatherlink.com 1.10,2013-09-09 06:36:00,
2013-09-09 02:44:00,67.9,67.0,30.02,NNW,348,0.0,-999.0,95,-99.99,,,0.00,weatherlink.com 1.10,2013-09-09 06:44:00,
2013-09-09 02:59:00,67.8,66.0,30.02,NNW,348,0.0,-999.0,95,-99.99,,,0.00,weatherlink.com 1.10,2013-09-09 06:59:00,
2013-09-09 03:14:00,67.7,66.0,30.02,NNW,348,0.0,-999.0,95,-99.99,,,0.00,weatherlink.com 1.10,2013-09-09 07:14:00,
2013-09-09 03:36:00,67.6,66.0,30.02,NNW,348,0.0,-999.0,95,-99.99,,,0.00,weatherlink.com 1.10,2013-09-09 07:36:00,
2013-09-09 03:44:00,67.4,66.0,30.02,NNW,348,0.0,-999.0,95,-99.99,,,0.00,weatherlink.com 1.10,2013-09-09 07:44:00,
2013-09-09 03:59:00,67.1,66.0,30.02,NNW,348,0.0,-999.0,95,-99.99,,,0.00,weatherlink.com 1.10,2013-09-09 07:59:00,
2013-09-09 04:14:00,67.1,66.0,30.03,NNW,348,0.0,-999.0,95,-99.99,,,0.00,weatherlink.com 1.10,2013-09-09 08:14:00,
2013-09-09 04:36:00,67.0,66.0,30.03,NNW,348,0.0,-999.0,95,-99.99,,,0.00,weatherlink.com 1.10,2013-09-09 08:36:00,
2013-09-09 04:44:00,66.6,65.0,30.03,NNW,348,0.0,-999.0,95,-99.99,,,0.00,weatherlink.com 1.10,2013-09-09 08:44:00,
2013-09-09 04:59:00,66.5,65.0,30.03,NNW,348,0.0,-999.0,95,-99.99,,,0.00,weatherlink.com 1.10,2013-09-09 08:59:00,
2013-09-09 05:14:00,66.2,65.0,30.03,NNW,348,0.0,-999.0,95,-99.99,,,0.00,weatherlink.com 1.10,2013-09-09 09:14:00,
2013-09-09 05:36:00,66.1,65.0,30.03,NNW,348,0.0,-999.0,95,-99.99,,,0.00,weatherlink.com 1.10,2013-09-09 09:36:00,
2013-09-09 05:44:00,66.1,65.0,30.04,North,355,0.0,-999.0,95,-99.99,,,0.00,weatherlink.com 1.10,2013-09-09 09:44:00,
2013-09-09 05:59:00,66.0,65.0,30.04,North,355,0.0,-999.0,95,-99.99,,,0.00,weatherlink.com 1.10,2013-09-09 09:59:00,
2013-09-09 06:14:00,65.9,65.0,30.04,North,355,0.0,-999.0,95,-99.99,,,0.00,weatherlink.com 1.10,2013-09-09 10:14:00,
2013-09-09 06:36:00,65.9,65.0,30.04,North,355,0.0,-999.0,95,-99.99,,,0.00,weatherlink.com 1.10,2013-09-09 10:36:00,
2013-09-09 06:44:00,66.5,65.0,30.04,North,355,0.0,-999.0,96,-99.99,,,0.00,weatherlink.com 1.10,2013-09-09 10:44:00,
2013-09-09 06:59:00,66.5,65.0,30.04,North,355,0.0,-999.0,95,-99.99,,,0.00,weatherlink.com 1.10,2013-09-09 10:59:00,
2013-09-09 07:14:00,66.5,65.0,30.05,North,355,0.0,-999.0,96,-99.99,,,0.00,weatherlink.com 1.10,2013-09-09 11:14:00,
2013-09-09 07:36:00,66.4,65.0,30.05,North,355,0.0,-999.0,95,-99.99,,,0.00,weatherlink.com 1.10,2013-09-09 11:36:00,
2013-09-09 07:44:00,66.5,65.0,30.06,North,355,0.0,-999.0,96,-99.99,,,0.00,weatherlink.com 1.10,2013-09-09 11:44:00,
2013-09-09 07:59:00,66.8,66.0,30.06,North,355,0.0,-999.0,96,-99.99,,,0.00,weatherlink.com 1.10,2013-09-09 11:59:00,
2013-09-09 08:14:00,67.2,66.0,30.06,NE,46,0.0,-999.0,96,-99.99,,,0.00,weatherlink.com 1.10,2013-09-09 12:14:00,
2013-09-09 08:36:00,67.7,67.0,30.06,ENE,71,0.0,-999.0,96,-99.99,,,0.00,weatherlink.com 1.10,2013-09-09 12:36:00,
2013-09-09 08:44:00,68.9,68.0,30.06,SSE,148,0.0,-999.0,96,-99.99,,,0.00,weatherlink.com 1.10,2013-09-09 12:44:00,
2013-09-09 08:59:00,69.9,69.0,30.06,SE,142,2.0,-999.0,96,-99.99,,,0.00,weatherlink.com 1.10,2013-09-09 12:59:00,
2013-09-09 09:14:00,71.0,70.0,30.06,SE,129,5.0,-999.0,96,-99.99,,,0.00,weatherlink.com 1.10,2013-09-09 13:14:00,
2013-09-09 09:36:00,71.9,71.0,30.06,ESE,121,0.0,-999.0,95,-99.99,,,0.00,weatherlink.com 1.10,2013-09-09 13:36:00,
2013-09-09 09:44:00,74.3,70.0,30.06,ESE,118,1.0,-999.0,87,-99.99,,,0.00,weatherlink.com 1.10,2013-09-09 13:44:00,
2013-09-09 09:59:00,76.0,71.0,30.07,East,96,0.0,-999.0,84,-99.99,,,0.00,weatherlink.com 1.10,2013-09-09 13:59:00,
2013-09-09 10:14:00,78.0,72.0,30.07,ESE,113,0.0,-999.0,81,-99.99,,,0.00,weatherlink.com 1.10,2013-09-09 14:14:00,
2013-09-09 10:36:00,79.0,72.0,30.07,ESE,105,0.0,-999.0,79,-99.99,,,0.00,weatherlink.com 1.10,2013-09-09 14:36:00,
2013-09-09 10:44:00,81.3,72.0,30.08,ESE,111,0.0,-999.0,73,-99.99,,,0.00,weatherlink.com 1.10,2013-09-09 14:44:00,
2013-09-09 10:59:00,82.2,71.0,30.08,South,182,2.0,-999.0,69,-99.99,,,0.00,weatherlink.com 1.10,2013-09-09 14:59:00,
2013-09-09 11:14:00,83.4,73.0,30.08,South,191,0.0,-999.0,71,-99.99,,,0.00,weatherlink.com 1.10,2013-09-09 15:14:00,
2013-09-09 11:36:00,84.3,72.0,30.08,SW,216,3.0,-999.0,67,-99.99,,,0.00,weatherlink.com 1.10,2013-09-09 15:36:00,
2013-09-09 11:44:00,85.1,70.0,30.07,West,276,0.0,-999.0,60,-99.99,,,0.00,weatherlink.com 1.10,2013-09-09 15:44:00,
2013-09-09 11:59:00,85.6,70.0,30.07,WSW,246,5.0,-999.0,59,-99.99,,,0.00,weatherlink.com 1.10,2013-09-09 15:59:00,
2013-09-09 12:14:00,85.8,70.0,30.07,South,179,6.0,-999.0,59,-99.99,,,0.00,weatherlink.com 1.10,2013-09-09 16:14:00,
2013-09-09 12:36:00,85.5,70.0,30.07,South,172,9.0,-999.0,60,-99.99,,,0.00,weatherlink.com 1.10,2013-09-09 16:36:00,
2013-09-09 12:44:00,86.3,71.0,30.07,SSW,204,0.0,-999.0,60,-99.99,,,0.00,weatherlink.com 1.10,2013-09-09 16:44:00,
2013-09-09 12:59:00,86.4,71.0,30.07,SW,215,0.0,-999.0,60,-99.99,,,0.00,weatherlink.com 1.10,2013-09-09 16:59:00,
2013-09-09 13:14:00,86.9,71.0,30.06,WSW,253,1.0,-999.0,59,-99.99,,,0.00,weatherlink.com 1.10,2013-09-09 17:14:00,
2013-09-09 13:36:00,87.2,70.0,30.06,SW,226,4.0,-999.0,57,-99.99,,,0.00,weatherlink.com 1.10,2013-09-09 17:36:00,
2013-09-09 13:44:00,86.8,71.0,30.06,WNW,287,0.0,-999.0,59,-99.99,,,0.00,weatherlink.com 1.10,2013-09-09 17:44:00,
2013-09-09 13:59:00,87.5,71.0,30.06,NW,305,1.0,-999.0,59,-99.99,,,0.00,weatherlink.com 1.10,2013-09-09 17:59:00,
2013-09-09 14:14:00,88.4,71.0,30.06,West,263,5.0,-999.0,56,-99.99,,,0.00,weatherlink.com 1.10,2013-09-09 18:14:00,
2013-09-09 14:36:00,87.9,70.0,30.06,WSW,252,3.0,-999.0,56,-99.99,,,0.00,weatherlink.com 1.10,2013-09-09 18:36:00,
2013-09-09 14:44:00,88.6,70.0,30.05,West,281,6.0,-999.0,55,-99.99,,,0.00,weatherlink.com 1.10,2013-09-09 18:44:00,
2013-09-09 14:59:00,89.0,71.0,30.04,WNW,284,5.0,-999.0,56,-99.99,,,0.00,weatherlink.com 1.10,2013-09-09 18:59:00,
2013-09-09 15:14:00,88.8,70.0,30.04,WSW,246,4.0,-999.0,54,-99.99,,,0.00,weatherlink.com 1.10,2013-09-09 19:14:00,
2013-09-09 15:36:00,88.6,71.0,30.03,West,275,3.0,-999.0,57,-99.99,,,0.00,weatherlink.com 1.10,2013-09-09 19:36:00,
2013-09-09 15:44:00,88.7,69.0,30.03,SSW,212,4.0,-999.0,53,-99.99,,,0.00,weatherlink.com 1.10,2013-09-09 19:44:00,
2013-09-09 15:59:00,88.6,71.0,30.02,SSW,198,0.0,-999.0,56,-99.99,,,0.00,weatherlink.com 1.10,2013-09-09 19:59:00,
2013-09-09 16:14:00,89.9,71.0,30.02,WSW,254,2.0,-999.0,54,-99.99,,,0.00,weatherlink.com 1.10,2013-09-09 20:14:00,
2013-09-09 16:36:00,89.6,70.0,30.02,WSW,256,3.0,-999.0,53,-99.99,,,0.00,weatherlink.com 1.10,2013-09-09 20:36:00,
2013-09-09 16:44:00,89.1,70.0,30.02,WSW,256,5.0,-999.0,53,-99.99,,,0.00,weatherlink.com 1.10,2013-09-09 20:44:00,
2013-09-09 16:59:00,89.5,69.0,30.02,WSW,246,5.0,-999.0,51,-99.99,,,0.00,weatherlink.com 1.10,2013-09-09 20:59:00,
2013-09-09 17:15:00,88.0,70.0,30.02,West,260,2.0,-999.0,55,-99.99,,,0.00,weatherlink.com 1.10,2013-09-09 21:15:00,
2013-09-09 17:36:00,88.6,70.0,30.02,SW,236,0.0,-999.0,54,-99.99,,,0.00,weatherlink.com 1.10,2013-09-09 21:36:00,
2013-09-09 17:44:00,89.6,71.0,30.02,WSW,250,0.0,-999.0,55,-99.99,,,0.00,weatherlink.com 1.10,2013-09-09 21:44:00,
2013-09-09 17:59:00,88.6,71.0,30.01,SW,217,1.0,-999.0,56,-99.99,,,0.00,weatherlink.com 1.10,2013-09-09 21:59:00,
2013-09-09 18:14:00,88.5,72.0,30.02,SSW,211,0.0,-999.0,59,-99.99,,,0.00,weatherlink.com 1.10,2013-09-09 22:14:00,
2013-09-09 18:36:00,88.5,72.0,30.02,SSW,209,3.0,-999.0,58,-99.99,,,0.00,weatherlink.com 1.10,2013-09-09 22:36:00,
2013-09-09 18:44:00,87.7,73.0,30.01,South,186,0.0,-999.0,61,-99.99,,,0.00,weatherlink.com 1.10,2013-09-09 22:44:00,
2013-09-09 18:59:00,87.4,73.0,30.01,SSW,207,0.0,-999.0,62,-99.99,,,0.00,weatherlink.com 1.10,2013-09-09 22:59:00,
2013-09-09 19:15:00,86.8,74.0,30.02,North,5,0.0,-999.0,66,-99.99,,,0.00,weatherlink.com 1.10,2013-09-09 23:15:00,
2013-09-09 19:36:00,85.7,74.0,30.02,North,5,0.0,-999.0,68,-99.99,,,0.00,weatherlink.com 1.10,2013-09-09 23:36:00,
2013-09-09 19:44:00,82.1,74.0,30.02,North,5,0.0,-999.0,75,-99.99,,,0.00,weatherlink.com 1.10,2013-09-09 23:44:00,
2013-09-09 19:59:00,80.0,73.0,30.03,North,5,0.0,-999.0,79,-99.99,,,0.00,weatherlink.com 1.10,2013-09-09 23:59:00,
2013-09-09 20:14:00,78.5,73.0,30.04,North,5,0.0,-999.0,82,-99.99,,,0.00,weatherlink.com 1.10,2013-09-10 00:14:00,
2013-09-09 20:36:00,77.7,72.0,30.04,North,5,0.0,-999.0,83,-99.99,,,0.00,weatherlink.com 1.10,2013-09-10 00:36:00,
2013-09-09 20:44:00,76.3,72.0,30.05,North,5,0.0,-999.0,86,-99.99,,,0.00,weatherlink.com 1.10,2013-09-10 00:44:00,
2013-09-09 20:59:00,75.7,72.0,30.05,North,5,0.0,-999.0,87,-99.99,,,0.00,weatherlink.com 1.10,2013-09-10 00:59:00,
2013-09-09 21:14:00,75.2,72.0,30.05,North,5,0.0,-999.0,88,-99.99,,,0.00,weatherlink.com 1.10,2013-09-10 01:14:00,
2013-09-09 21:37:00,74.9,71.0,30.05,North,5,0.0,-999.0,88,-99.99,,,0.00,weatherlink.com 1.10,2013-09-10 01:37:00,
2013-09-09 21:45:00,74.4,71.0,30.06,North,5,0.0,-999.0,89,-99.99,,,0.00,weatherlink.com 1.10,2013-09-10 01:45:00,
2013-09-09 22:00:00,74.0,71.0,30.07,North,5,0.0,-999.0,90,-99.99,,,0.00,weatherlink.com 1.10,2013-09-10 02:00:00,
2013-09-09 22:15:00,73.7,71.0,30.07,North,5,0.0,-999.0,91,-99.99,,,0.00,weatherlink.com 1.10,2013-09-10 02:15:00,
2013-09-09 22:36:00,73.5,71.0,30.08,North,5,0.0,-999.0,91,-99.99,,,0.00,weatherlink.com 1.10,2013-09-10 02:36:00,
2013-09-09 22:44:00,73.4,71.0,30.07,North,5,0.0,-999.0,92,-99.99,,,0.00,weatherlink.com 1.10,2013-09-10 02:44:00,
2013-09-09 22:59:00,73.5,71.0,30.07,North,5,0.0,-999.0,92,-99.99,,,0.00,weatherlink.com 1.10,2013-09-10 02:59:00,
2013-09-09 23:14:00,73.6,71.0,30.07,North,5,0.0,-999.0,92,-99.99,,,0.00,weatherlink.com 1.10,2013-09-10 03:14:00,
2013-09-09 23:36:00,73.7,71.0,30.07,North,5,0.0,-999.0,92,-99.99,,,0.00,weatherlink.com 1.10,2013-09-10 03:36:00,
2013-09-09 23:44:00,74.0,71.0,30.08,North,5,0.0,-999.0,91,-99.99,,,0.00,weatherlink.com 1.10,2013-09-10 03:44:00,
2013-09-09 23:59:00,73.7,71.0,30.08,North,5,0.0,-999.0,91,-99.99,,,0.00,weatherlink.com 1.10,2013-09-10 03:59:00,